createdAt,value
2019-04-06T00:02:15.670Z,98817.82
2019-04-06T00:04:42.104Z,98816.20
2019-04-06T00:07:08.747Z,98824.56
2019-04-06T00:09:35.350Z,98815.95
2019-04-06T00:12:01.981Z,98817.53
2019-04-06T00:14:30.587Z,98819.55
2019-04-06T00:16:56.922Z,98819.81
2019-04-06T00:19:23.255Z,98821.56
2019-04-06T00:21:49.877Z,98826.11
2019-04-06T00:24:16.218Z,98827.80
2019-04-06T00:26:42.676Z,98832.00
2019-04-06T00:29:09.372Z,98836.68
2019-04-06T00:31:36.010Z,98834.97
2019-04-06T00:34:02.575Z,98834.14
2019-04-06T00:36:29.179Z,98835.32
2019-04-06T00:38:55.498Z,98830.91
2019-04-06T00:41:22.146Z,98831.74
2019-04-06T00:43:48.782Z,98830.38
2019-04-06T00:46:15.413Z,98831.20
2019-04-06T00:48:41.732Z,98832.47
2019-04-06T00:51:08.036Z,98827.23
2019-04-06T00:53:34.344Z,98833.34
2019-04-06T00:56:00.970Z,98833.62
2019-04-06T00:58:27.301Z,98836.68
2019-04-06T01:00:53.676Z,98833.88
2019-04-06T01:03:20.049Z,98837.25
2019-04-06T01:05:46.719Z,98835.06
2019-04-06T01:08:13.367Z,98835.41
2019-04-06T01:10:39.721Z,98837.44
2019-04-06T01:13:06.028Z,98841.20
2019-04-06T01:15:32.703Z,98846.12
2019-04-06T01:17:59.387Z,98846.05
2019-04-06T01:20:25.782Z,98839.90
2019-04-06T01:22:52.487Z,98842.30
2019-04-06T01:25:18.873Z,98841.30
2019-04-06T01:27:45.208Z,98844.82
2019-04-06T01:30:12.084Z,98844.95
2019-04-06T01:32:38.706Z,98845.39
2019-04-06T01:35:05.649Z,98843.44
2019-04-06T01:37:32.416Z,98843.44
2019-04-06T01:39:59.197Z,98842.00
2019-04-06T01:42:25.591Z,98839.32
2019-04-06T01:44:51.963Z,98848.48
2019-04-06T01:47:18.320Z,98840.28
2019-04-06T01:49:44.692Z,98837.16
2019-04-06T01:52:11.005Z,98839.88
2019-04-06T01:54:37.330Z,98842.07
2019-04-06T01:57:03.742Z,98838.27
2019-04-06T01:59:30.386Z,98830.14
2019-04-06T02:02:01.873Z,98830.77
2019-04-06T02:04:28.181Z,98837.03
2019-04-06T02:06:54.527Z,98834.69
2019-04-06T02:09:20.859Z,98841.65
2019-04-06T02:11:47.193Z,98842.41
2019-04-06T02:14:13.499Z,98835.17
2019-04-06T02:16:39.858Z,98831.79
2019-04-06T02:19:06.457Z,98829.11
2019-04-06T02:21:32.790Z,98827.48
2019-04-06T02:23:59.433Z,98830.57
2019-04-06T02:26:30.958Z,98826.77
2019-04-06T02:28:54.040Z,98826.91
2019-04-06T02:31:38.781Z,98829.45
2019-04-06T02:34:07.290Z,98829.86
2019-04-06T02:36:36.367Z,98829.25
2019-04-06T02:39:06.594Z,98829.13
2019-04-06T02:41:46.827Z,98835.45
2019-04-06T02:44:13.366Z,98843.17
2019-04-06T02:46:39.767Z,98834.91
2019-04-06T02:49:06.143Z,98841.65
2019-04-06T02:51:32.958Z,98845.09
2019-04-06T02:53:59.313Z,98848.13
2019-04-06T02:56:25.914Z,98848.61
2019-04-06T02:58:52.322Z,98849.00
2019-04-06T03:01:18.702Z,98847.05
2019-04-06T03:03:45.023Z,98850.43
2019-04-06T03:06:11.586Z,98851.61
2019-04-06T03:08:38.455Z,98848.88
2019-04-06T03:11:04.756Z,98851.27
2019-04-06T03:13:31.480Z,98855.25
2019-04-06T03:15:57.878Z,98848.86
2019-04-06T03:18:24.212Z,98847.55
2019-04-06T03:20:50.969Z,98839.91
2019-04-06T03:23:17.657Z,98846.54
2019-04-06T03:25:44.308Z,98852.38
2019-04-06T03:28:10.970Z,98848.58
2019-04-06T03:30:37.654Z,98850.97
2019-04-06T03:33:04.034Z,98845.48
2019-04-06T03:35:30.967Z,98850.30
2019-04-06T03:37:57.900Z,98845.55
2019-04-06T03:40:24.558Z,98850.14
2019-04-06T03:42:50.927Z,98854.42
2019-04-06T03:45:17.402Z,98857.39
2019-04-06T03:47:43.724Z,98855.80
2019-04-06T03:50:10.176Z,98849.66
2019-04-06T03:52:36.471Z,98855.73
2019-04-06T03:55:05.893Z,98853.11
2019-04-06T03:57:32.249Z,98850.84
2019-04-06T03:59:58.586Z,98853.40
2019-04-06T04:02:25.140Z,98853.20
2019-04-06T04:04:51.450Z,98840.66
2019-04-06T04:07:17.804Z,98851.84
2019-04-06T04:09:44.522Z,98846.23
2019-04-06T04:12:31.019Z,98852.24
2019-04-06T04:14:57.668Z,98853.33
2019-04-06T04:17:24.421Z,98848.57
2019-04-06T04:19:51.047Z,98851.19
2019-04-06T04:22:17.371Z,98855.88
2019-04-06T04:24:43.715Z,98855.30
2019-04-06T04:27:10.050Z,98854.39
2019-04-06T04:29:36.438Z,98855.98
2019-04-06T04:32:02.753Z,98856.81
2019-04-06T04:34:29.081Z,98854.34
2019-04-06T04:36:55.497Z,98856.47
2019-04-06T04:39:21.823Z,98858.80
2019-04-06T04:41:48.386Z,98862.84
2019-04-06T04:44:15.012Z,98862.42
2019-04-06T04:46:41.441Z,98867.20
2019-04-06T04:49:08.126Z,98869.03
2019-04-06T04:51:37.223Z,98875.34
2019-04-06T04:54:03.832Z,98874.58
2019-04-06T04:56:30.194Z,98870.64
2019-04-06T04:58:56.586Z,98870.74
2019-04-06T05:01:22.981Z,98880.34
2019-04-06T05:03:49.330Z,98874.03
2019-04-06T05:06:17.619Z,98878.38
2019-04-06T05:08:44.644Z,98877.78
2019-04-06T05:11:10.964Z,98875.88
2019-04-06T05:13:37.282Z,98874.72
2019-04-06T05:16:12.478Z,98876.85
2019-04-06T05:18:41.165Z,98873.83
2019-04-06T05:21:09.822Z,98867.83
2019-04-06T05:23:37.698Z,98869.98
2019-04-06T05:26:05.385Z,98877.90
2019-04-06T05:28:32.153Z,98872.32
2019-04-06T05:30:58.528Z,98881.42
2019-04-06T05:33:25.150Z,98882.25
2019-04-06T05:35:52.385Z,98882.98
2019-04-06T05:38:18.729Z,98888.86
2019-04-06T05:40:45.081Z,98897.41
2019-04-06T05:43:11.690Z,98896.25
2019-04-06T05:45:38.057Z,98895.95
2019-04-06T05:48:05.350Z,98901.07
2019-04-06T05:50:31.698Z,98896.71
2019-04-06T05:52:58.339Z,98904.98
2019-04-06T05:55:25.069Z,98902.98
2019-04-06T05:58:02.349Z,98909.23
2019-04-06T06:00:20.221Z,98912.09
2019-04-06T06:02:46.653Z,98903.63
2019-04-06T06:05:14.044Z,98905.38
2019-04-06T06:07:40.405Z,98904.24
2019-04-06T06:10:06.914Z,98911.44
2019-04-06T06:12:33.351Z,98913.92
2019-04-06T06:14:59.647Z,98916.44
2019-04-06T06:17:25.977Z,98919.41
2019-04-06T06:19:52.752Z,98921.73
2019-04-06T06:22:19.442Z,98923.13
2019-04-06T06:24:45.814Z,98928.59
2019-04-06T06:27:12.425Z,98928.93
2019-04-06T06:29:38.749Z,98930.95
2019-04-06T06:32:05.151Z,98930.38
2019-04-06T06:34:31.822Z,98926.16
2019-04-06T06:36:58.181Z,98923.91
2019-04-06T06:39:24.902Z,98924.86
2019-04-06T06:41:51.533Z,98923.12
2019-04-06T06:44:17.858Z,98928.10
2019-04-06T06:46:44.208Z,98928.61
2019-04-06T06:49:10.525Z,98931.27
2019-04-06T06:51:37.300Z,98922.69
2019-04-06T06:54:04.099Z,98924.52
2019-04-06T06:56:30.475Z,98927.63
2019-04-06T06:58:56.876Z,98928.53
2019-04-06T07:01:23.243Z,98924.77
2019-04-06T07:03:49.749Z,98928.22
2019-04-06T07:06:16.184Z,98921.73
2019-04-06T07:08:42.543Z,98918.95
2019-04-06T07:11:08.984Z,98918.84
2019-04-06T07:13:35.289Z,98914.92
2019-04-06T07:16:01.641Z,98917.70
2019-04-06T07:18:28.461Z,98913.69
2019-04-06T07:20:55.281Z,98908.61
2019-04-06T07:23:21.937Z,98913.88
2019-04-06T07:25:57.725Z,98919.73
2019-04-06T07:28:16.864Z,98911.90
2019-04-06T07:30:43.356Z,98911.91
2019-04-06T07:33:10.026Z,98916.41
2019-04-06T07:35:36.693Z,98914.02
2019-04-06T07:38:03.387Z,98916.41
2019-04-06T07:40:30.057Z,98914.33
2019-04-06T07:42:56.497Z,98917.12
2019-04-06T07:45:23.006Z,98915.56
2019-04-06T07:47:49.977Z,98909.79
2019-04-06T07:50:16.851Z,98914.48
2019-04-06T07:52:44.345Z,98906.17
2019-04-06T07:55:10.868Z,98908.44
2019-04-06T07:57:37.354Z,98908.63
2019-04-06T08:00:06.653Z,98903.34
2019-04-06T08:02:33.493Z,98904.06
2019-04-06T08:04:59.794Z,98907.00
2019-04-06T08:07:26.466Z,98905.77
2019-04-06T08:09:54.384Z,98900.52
2019-04-06T08:12:21.219Z,98898.38
2019-04-06T08:14:48.153Z,98894.83
2019-04-06T08:17:14.604Z,98902.92
2019-04-06T08:19:41.342Z,98896.65
2019-04-06T08:22:07.761Z,98895.66
2019-04-06T08:24:34.450Z,98899.12
2019-04-06T08:27:01.362Z,98897.16
2019-04-06T08:29:27.962Z,98896.62
2019-04-06T08:31:54.526Z,98896.80
2019-04-06T08:34:21.494Z,98888.23
2019-04-06T08:36:48.247Z,98880.63
2019-04-06T08:39:14.656Z,98878.64
2019-04-06T08:41:41.416Z,98876.11
2019-04-06T08:44:08.168Z,98871.55
2019-04-06T08:46:34.865Z,98868.41
2019-04-06T08:49:01.536Z,98864.39
2019-04-06T08:51:29.196Z,98870.44
2019-04-06T08:53:55.514Z,98867.58
2019-04-06T08:56:22.233Z,98864.00
2019-04-06T08:58:49.605Z,98868.20
2019-04-06T09:01:16.036Z,98861.23
2019-04-06T09:03:42.346Z,98859.91
2019-04-06T09:06:08.727Z,98862.49
2019-04-06T09:08:35.062Z,98856.55
2019-04-06T09:11:01.633Z,98856.70
2019-04-06T09:13:28.069Z,98855.64
2019-04-06T09:15:54.727Z,98851.33
2019-04-06T09:18:21.588Z,98852.78
2019-04-06T09:20:48.242Z,98850.11
2019-04-06T09:23:14.668Z,98846.62
2019-04-06T09:25:41.316Z,98842.31
2019-04-06T09:28:07.675Z,98846.42
2019-04-06T09:30:33.981Z,98842.44
2019-04-06T09:33:00.719Z,98837.09
2019-04-06T09:35:27.087Z,98837.63
2019-04-06T09:37:53.794Z,98835.45
2019-04-06T09:40:20.352Z,98837.09
2019-04-06T09:42:47.074Z,98830.64
2019-04-06T09:45:30.843Z,98832.56
2019-04-06T09:47:59.193Z,98824.29
2019-04-06T09:50:30.083Z,98816.27
2019-04-06T09:52:58.689Z,98817.08
2019-04-06T09:55:29.846Z,98815.05
2019-04-06T09:58:13.368Z,98812.06
2019-04-06T10:00:42.563Z,98811.96
2019-04-06T10:03:13.747Z,98813.27
2019-04-06T10:05:50.976Z,98809.63
2019-04-06T10:08:31.467Z,98805.67
2019-04-06T10:11:00.062Z,98809.69
2019-04-06T10:13:43.524Z,98805.75
2019-04-06T10:16:20.897Z,98811.41
2019-04-06T10:18:52.251Z,98809.88
2019-04-06T10:21:21.386Z,98809.24
2019-04-06T10:24:05.176Z,98808.53
2019-04-06T10:26:36.870Z,98808.63
2019-04-06T10:29:05.181Z,98806.51
2019-04-06T10:31:31.878Z,98799.19
2019-04-06T10:34:05.817Z,98799.95
2019-04-06T10:36:34.058Z,98794.34
2019-04-06T10:39:01.532Z,98794.03
2019-04-06T10:41:34.535Z,98788.98
2019-04-06T10:44:09.863Z,98788.19
2019-04-06T10:46:38.566Z,98777.55
2019-04-06T10:49:25.901Z,98780.60
2019-04-06T10:51:58.313Z,98785.80
2019-04-06T10:54:36.649Z,98781.70
2019-04-06T10:57:11.196Z,98777.78
2019-04-06T11:00:00.202Z,98775.36
2019-04-06T11:02:36.120Z,98767.75
2019-04-06T11:05:06.845Z,98760.98
2019-04-06T11:07:51.973Z,98761.70
2019-04-06T11:10:30.218Z,98755.22
2019-04-06T11:13:11.807Z,98760.48
2019-04-06T11:15:43.112Z,98755.81
2019-04-06T11:18:28.170Z,98751.34
2019-04-06T11:20:56.652Z,98753.60
2019-04-06T11:23:30.614Z,98751.95
2019-04-06T11:25:57.393Z,98751.48
2019-04-06T11:28:28.864Z,98749.95
2019-04-06T11:31:00.023Z,98746.01
2019-04-06T11:33:37.618Z,98742.91
2019-04-06T11:36:24.424Z,98746.20
2019-04-06T11:39:07.753Z,98745.44
2019-04-06T11:41:37.470Z,98752.48
2019-04-06T11:44:08.751Z,98738.66
2019-04-06T11:46:43.352Z,98734.92
2019-04-06T11:49:11.681Z,98745.97
2019-04-06T11:51:56.426Z,98748.30
2019-04-06T11:54:24.724Z,98738.55
2019-04-06T11:56:59.101Z,98749.19
2019-04-06T11:59:43.860Z,98742.36
2019-04-06T12:02:19.578Z,98742.44
2019-04-06T12:04:57.821Z,98745.25
2019-04-06T12:07:26.174Z,98739.51
2019-04-06T12:10:00.540Z,98739.50
2019-04-06T12:12:36.036Z,98737.18
2019-04-06T12:15:06.141Z,98738.44
2019-04-06T12:17:37.700Z,98727.53
2019-04-06T12:20:19.643Z,98730.62
2019-04-06T12:22:58.282Z,98723.12
2019-04-06T12:25:30.817Z,98715.35
2019-04-06T12:28:00.529Z,98710.85
2019-04-06T12:30:45.762Z,98720.20
2019-04-06T12:33:23.132Z,98717.38
2019-04-06T12:36:04.851Z,98711.28
2019-04-06T12:38:37.149Z,98697.13
2019-04-06T12:41:18.279Z,98692.75
2019-04-06T12:43:47.780Z,98705.58
2019-04-06T12:46:16.350Z,98690.68
2019-04-06T12:48:56.682Z,98693.86
2019-04-06T12:51:25.164Z,98698.75
2019-04-06T12:53:59.579Z,98692.69
2019-04-06T12:56:33.727Z,98699.64
2019-04-06T12:59:06.298Z,98699.85
2019-04-06T13:01:51.344Z,98701.77
2019-04-06T13:04:23.952Z,98697.53
2019-04-06T13:06:59.453Z,98684.57
2019-04-06T13:09:44.568Z,98691.14
2019-04-06T13:12:39.249Z,98686.34
2019-04-06T13:15:08.224Z,98682.04
2019-04-06T13:17:53.900Z,98675.11
2019-04-06T13:20:39.257Z,98679.72
2019-04-06T13:23:10.703Z,98678.91
2019-04-06T13:25:55.446Z,98678.53
2019-04-06T13:28:24.329Z,98672.76
2019-04-06T13:31:06.369Z,98676.13
2019-04-06T13:33:35.044Z,98673.61
2019-04-06T13:36:03.805Z,98673.81
2019-04-06T13:38:48.982Z,98674.14
2019-04-06T13:41:21.698Z,98679.70
2019-04-06T13:44:07.003Z,98669.92
2019-04-06T13:46:41.058Z,98670.38
2019-04-06T13:49:22.377Z,98669.93
2019-04-06T13:51:54.080Z,98664.86
2019-04-06T13:54:31.552Z,98666.00
2019-04-06T13:57:00.552Z,98658.75
2019-04-06T13:59:29.091Z,98663.83
2019-04-06T14:02:01.498Z,98671.01
2019-04-06T14:04:29.891Z,98665.58
2019-04-06T14:06:56.281Z,98669.19
2019-04-06T14:09:41.262Z,98668.03
2019-04-06T14:12:26.175Z,98673.47
2019-04-06T14:14:54.387Z,98675.75
2019-04-06T14:17:22.911Z,98677.89
2019-04-06T14:19:54.154Z,98683.44
2019-04-06T14:22:22.742Z,98682.85
2019-04-06T14:24:51.475Z,98694.79
2019-04-06T14:27:25.662Z,98699.44
2019-04-06T14:30:02.855Z,98706.34
2019-04-06T14:32:48.991Z,98712.58
2019-04-06T14:35:32.489Z,98703.07
2019-04-06T14:38:01.399Z,98709.73
2019-04-06T14:40:43.008Z,98701.77
2019-04-06T14:43:11.326Z,98710.12
2019-04-06T14:45:56.473Z,98719.94
2019-04-06T14:48:30.427Z,98709.94
2019-04-06T14:51:12.042Z,98705.94
2019-04-06T14:53:57.129Z,98704.72
2019-04-06T14:56:28.745Z,98708.66
2019-04-06T14:59:15.834Z,98710.38
2019-04-06T15:02:01.034Z,98705.41
2019-04-06T15:04:29.283Z,98711.57
2019-04-06T15:07:11.171Z,98705.60
2019-04-06T15:09:39.675Z,98712.84
2019-04-06T15:12:11.828Z,98711.66
2019-04-06T15:14:41.487Z,98711.16
2019-04-06T15:17:27.110Z,98708.84
2019-04-06T15:19:57.123Z,98704.58
2019-04-06T15:22:25.352Z,98709.89
2019-04-06T15:24:56.729Z,98708.36
2019-04-06T15:27:25.122Z,98709.59
2019-04-06T15:30:06.926Z,98704.88
2019-04-06T15:32:52.064Z,98714.51
2019-04-06T15:35:36.880Z,98719.41
2019-04-06T15:38:13.853Z,98719.21
2019-04-06T15:40:59.042Z,98723.17
2019-04-06T15:43:39.244Z,98718.45
2019-04-06T15:46:10.740Z,98719.20
2019-04-06T15:48:55.609Z,98720.48
2019-04-06T15:51:40.476Z,98721.63
2019-04-06T15:54:21.124Z,98717.77
2019-04-06T15:56:58.437Z,98713.64
2019-04-06T15:59:36.031Z,98718.16
2019-04-06T16:02:16.168Z,98715.14
2019-04-06T16:04:44.641Z,98713.80
2019-04-06T16:07:29.483Z,98715.87
2019-04-06T16:09:55.447Z,98726.98
2019-04-06T16:12:35.923Z,98717.33
2019-04-06T16:15:07.634Z,98720.41
2019-04-06T16:17:34.133Z,98714.98
2019-04-06T16:20:06.520Z,98717.52
2019-04-06T16:22:51.267Z,98716.86
2019-04-06T16:25:27.194Z,98726.31
2019-04-06T16:27:54.186Z,98725.36
2019-04-06T16:30:21.113Z,98730.96
2019-04-06T16:32:58.144Z,98737.27
2019-04-06T16:35:43.769Z,98736.52
2019-04-06T16:38:14.695Z,98729.39
2019-04-06T16:40:42.789Z,98740.25
2019-04-06T16:43:11.454Z,98759.03
2019-04-06T16:45:55.402Z,98761.28
2019-04-06T16:48:27.810Z,98760.05
2019-04-06T16:51:14.460Z,98762.33
2019-04-06T16:53:51.802Z,98766.55
2019-04-06T16:56:31.001Z,98776.37
2019-04-06T16:59:06.396Z,98775.77
2019-04-06T17:01:43.870Z,98777.65
2019-04-06T17:04:15.737Z,98779.88
2019-04-06T17:07:02.030Z,98784.64
2019-04-06T17:09:31.799Z,98785.43
2019-04-06T17:12:06.053Z,98782.63
2019-04-06T17:14:34.718Z,98781.53
2019-04-06T17:17:06.332Z,98789.50
2019-04-06T17:19:51.791Z,98787.41
2019-04-06T17:22:29.378Z,98794.83
2019-04-06T17:25:14.128Z,98792.45
2019-04-06T17:27:42.456Z,98779.22
2019-04-06T17:30:12.205Z,98785.61
2019-04-06T17:32:58.116Z,98788.91
2019-04-06T17:35:32.731Z,98785.22
2019-04-06T17:38:10.151Z,98793.47
2019-04-06T17:40:44.599Z,98785.69
2019-04-06T17:43:16.285Z,98788.34
2019-04-06T17:45:44.950Z,98793.05
2019-04-06T17:48:20.372Z,98786.35
2019-04-06T17:51:02.223Z,98796.12
2019-04-06T17:53:30.922Z,98796.56
2019-04-06T17:56:17.354Z,98790.88
2019-04-06T17:58:46.330Z,98802.76
2019-04-06T18:01:16.247Z,98809.23
2019-04-06T18:03:50.542Z,98814.15
2019-04-06T18:06:18.872Z,98814.42
2019-04-06T18:08:56.097Z,98822.94
2019-04-06T18:11:28.670Z,98821.44
2019-04-06T18:13:55.159Z,98826.28
2019-04-06T18:16:25.534Z,98823.42
2019-04-06T18:18:52.182Z,98822.76
2019-04-06T18:21:18.716Z,98830.14
2019-04-06T18:23:45.047Z,98830.75
2019-04-06T18:26:11.693Z,98839.91
2019-04-06T18:28:38.072Z,98839.61
2019-04-06T18:31:24.771Z,98841.61
2019-04-06T18:33:56.303Z,98836.75
2019-04-06T18:36:25.901Z,98841.47
2019-04-06T18:38:58.805Z,98842.74
2019-04-06T18:41:26.289Z,98848.16
2019-04-06T18:43:56.865Z,98850.39
2019-04-06T18:46:23.589Z,98850.11
2019-04-06T18:48:50.259Z,98854.61
2019-04-06T18:51:16.901Z,98853.84
2019-04-06T18:53:43.732Z,98852.02
2019-04-06T18:56:10.818Z,98853.91
2019-04-06T18:58:38.044Z,98848.36
2019-04-06T19:01:05.485Z,98852.66
2019-04-06T19:03:40.432Z,98852.39
2019-04-06T19:06:07.131Z,98856.55
2019-04-06T19:08:34.301Z,98863.64
2019-04-06T19:11:01.248Z,98863.36
2019-04-06T19:13:27.654Z,98866.03
2019-04-06T19:15:55.088Z,98866.02
2019-04-06T19:18:21.433Z,98867.22
2019-04-06T19:21:18.632Z,98870.36
2019-04-06T19:23:45.063Z,98869.39
2019-04-06T19:26:11.786Z,98867.91
2019-04-06T19:28:38.116Z,98870.89
2019-04-06T19:31:04.779Z,98869.08
2019-04-06T19:33:31.542Z,98870.39
2019-04-06T19:35:58.740Z,98871.91
2019-04-06T19:38:25.600Z,98868.45
2019-04-06T19:40:52.230Z,98871.27
2019-04-06T19:43:18.867Z,98871.08
2019-04-06T19:45:45.207Z,98865.50
2019-04-06T19:48:11.910Z,98871.42
2019-04-06T19:50:38.800Z,98855.45
2019-04-06T19:53:05.735Z,98864.35
2019-04-06T19:55:32.472Z,98865.16
2019-04-06T19:57:59.775Z,98859.55
2019-04-06T20:00:30.961Z,98867.14
2019-04-06T20:02:57.879Z,98864.81
2019-04-06T20:05:27.853Z,98863.19
2019-04-06T20:07:54.278Z,98861.84
2019-04-06T20:10:20.610Z,98861.82
2019-04-06T20:12:47.079Z,98858.67
2019-04-06T20:15:14.248Z,98854.17
2019-04-06T20:17:40.744Z,98855.64
2019-04-06T20:20:09.343Z,98846.27
2019-04-06T20:22:36.532Z,98841.77
2019-04-06T20:25:05.406Z,98847.86
2019-04-06T20:27:32.181Z,98848.16
2019-04-06T20:29:58.747Z,98847.66
2019-04-06T20:32:25.171Z,98850.59
2019-04-06T20:34:51.716Z,98848.59
2019-04-06T20:37:19.439Z,98848.59
2019-04-06T20:39:46.114Z,98852.54
2019-04-06T20:42:13.764Z,98846.10
2019-04-06T20:44:40.937Z,98843.27
2019-04-06T20:47:07.637Z,98845.13
2019-04-06T20:49:34.311Z,98841.33
2019-04-06T20:52:00.720Z,98835.05
2019-04-06T20:54:27.451Z,98836.84
2019-04-06T20:56:58.052Z,98834.05
2019-04-06T20:59:22.933Z,98842.23
2019-04-06T21:01:49.736Z,98841.84
2019-04-06T21:04:16.690Z,98831.75
2019-04-06T21:06:43.690Z,98838.17
2019-04-06T21:09:12.874Z,98836.02
2019-04-06T21:11:39.423Z,98835.95
2019-04-06T21:14:05.922Z,98838.57
2019-04-06T21:16:32.255Z,98842.95
2019-04-06T21:18:58.983Z,98845.45
2019-04-06T21:21:25.881Z,98840.77
2019-04-06T21:23:52.963Z,98839.38
2019-04-06T21:26:19.693Z,98836.39
2019-04-06T21:28:46.554Z,98838.68
2019-04-06T21:31:14.208Z,98835.04
2019-04-06T21:33:40.957Z,98827.44
2019-04-06T21:36:07.314Z,98833.81
2019-04-06T21:38:33.647Z,98825.91
2019-04-06T21:41:00.095Z,98832.97
2019-04-06T21:43:27.785Z,98821.13
2019-04-06T21:45:54.852Z,98826.50
2019-04-06T21:48:22.377Z,98826.05
2019-04-06T21:50:49.162Z,98831.93
2019-04-06T21:53:15.785Z,98834.50
2019-04-06T21:55:42.285Z,98834.30
2019-04-06T21:58:08.691Z,98833.70
2019-04-06T22:00:37.077Z,98832.53
2019-04-06T22:03:06.121Z,98828.84
2019-04-06T22:05:32.991Z,98827.50
2019-04-06T22:07:59.490Z,98831.06
2019-04-06T22:10:26.474Z,98829.38
2019-04-06T22:12:53.444Z,98832.63
2019-04-06T22:15:20.222Z,98828.55
2019-04-06T22:17:46.738Z,98824.72
2019-04-06T22:20:13.126Z,98824.05
2019-04-06T22:22:40.456Z,98817.95
2019-04-06T22:25:07.462Z,98821.05
2019-04-06T22:27:34.558Z,98819.54
2019-04-06T22:30:01.626Z,98818.19
2019-04-06T22:32:28.876Z,98810.94
2019-04-06T22:34:55.684Z,98814.84
2019-04-06T22:37:22.452Z,98810.56
2019-04-06T22:39:49.092Z,98809.18
2019-04-06T22:42:15.470Z,98816.36
2019-04-06T22:44:41.834Z,98814.41
2019-04-06T22:47:08.178Z,98811.66
2019-04-06T22:49:34.933Z,98809.61
2019-04-06T22:52:01.345Z,98811.28
2019-04-06T22:54:27.766Z,98810.98
2019-04-06T22:56:54.408Z,98810.38
2019-04-06T22:59:21.188Z,98811.65
2019-04-06T23:01:47.522Z,98805.92
2019-04-06T23:04:19.325Z,98812.48
2019-04-06T23:06:48.258Z,98810.47
2019-04-06T23:09:15.039Z,98803.61
2019-04-06T23:11:41.442Z,98802.61
2019-04-06T23:14:07.745Z,98801.99
2019-04-06T23:16:34.502Z,98809.91
2019-04-06T23:19:01.585Z,98808.41
2019-04-06T23:21:27.971Z,98812.34
2019-04-06T23:23:54.294Z,98801.41
2019-04-06T23:26:21.397Z,98805.61
2019-04-06T23:28:49.066Z,98799.61
2019-04-06T23:31:16.277Z,98797.95
2019-04-06T23:33:43.132Z,98799.00
2019-04-06T23:36:09.967Z,98802.84
2019-04-06T23:38:36.532Z,98805.89
2019-04-06T23:41:03.974Z,98803.75
2019-04-06T23:43:31.152Z,98800.52
2019-04-06T23:45:58.036Z,98797.91
2019-04-06T23:48:24.686Z,98797.69
2019-04-06T23:50:51.625Z,98800.59
2019-04-06T23:53:18.021Z,98799.84
2019-04-06T23:55:44.601Z,98801.77
2019-04-06T23:58:11.070Z,98799.44
